EGAA/BFS METAR and TAF weather

Enter ICAO airport designator
Station Type Date Time Source
EGAA METAR 2020/07/14 05:50 UTC NOAA

EGAA 140550Z 27009KT 9999 BKN011 BKN015 OVC029 11/10 Q1018


Station Type Date Time Source
EGAA Decoded METAR 2020/07/14 05:50 UTC NOAA

Belfast / Aldergrove Airport, United Kingdom (EGAA) 54-39N 006-13W 0M
Jul 14, 2020 - 01:50 AM EDT / 2020.07.14 0550 UTC
Wind: from the W (270 degrees) at 10 MPH (9 KT):0
Visibility: greater than 7 mile(s):0
Sky conditions: overcast
Temperature: 51 F (11 C)
Dew Point: 50 F (10 C)
Relative Humidity: 93%
Pressure (altimeter): 30.06 in. Hg (1018 hPa)
ob: EGAA 140550Z 27009KT 9999 BKN011 BKN015 OVC029 11/10 Q1018
cycle: 6

Station Type Date Time Source
EGAA TAF 2020/07/14 06:09 UTC NOAA

TAF TAF EGAA 140459Z 1406/1506 28009KT 9999 FEW015 SCT025
TEMPO 1406/1408 SCT009 BKN012
BECMG 1408/1410 BKN012
TEMPO 1410/1506 6000 RA -RADZ BKN007 PROB30
TEMPO 1412/1506 4000 RADZ PROB30
TEMPO 1502/1506 BKN004

Example: see airport list